createdAt,value
2019-04-21T00:00:31.855Z,54.40
2019-04-21T00:03:07.266Z,54.40
2019-04-21T00:05:54.590Z,55.20
2019-04-21T00:08:30.972Z,54.90
2019-04-21T00:11:01.111Z,55.20
2019-04-21T00:13:20.463Z,55.30
2019-04-21T00:15:46.800Z,54.80
2019-04-21T00:18:39.623Z,54.50
2019-04-21T00:21:12.162Z,54.90
2019-04-21T00:23:51.542Z,55.90
2019-04-21T00:26:17.069Z,55.80
2019-04-21T00:28:59.494Z,55.60
2019-04-21T00:31:24.624Z,55.30
2019-04-21T00:33:41.272Z,55.60
2019-04-21T00:36:18.131Z,55.90
2019-04-21T00:39:17.100Z,56.00
2019-04-21T00:41:41.844Z,56.30
2019-04-21T00:44:02.726Z,56.10
2019-04-21T00:46:34.806Z,55.60
2019-04-21T00:49:08.538Z,55.80
2019-04-21T00:51:55.431Z,56.30
2019-04-21T00:54:29.365Z,56.40
2019-04-21T00:56:56.734Z,56.80
2019-04-21T00:59:28.239Z,56.90
2019-04-21T01:01:56.616Z,56.90
2019-04-21T01:04:30.686Z,57.30
2019-04-21T01:07:03.840Z,57.30
2019-04-21T01:09:27.579Z,57.40
2019-04-21T01:12:03.669Z,56.90
2019-04-21T01:14:34.527Z,57.20
2019-04-21T01:17:05.402Z,56.90
2019-04-21T01:19:33.219Z,57.00
2019-04-21T01:21:45.265Z,57.00
2019-04-21T01:24:21.920Z,57.90
2019-04-21T01:26:56.872Z,57.60
2019-04-21T01:29:44.061Z,58.50
2019-04-21T01:32:13.495Z,58.00
2019-04-21T01:34:39.258Z,57.60
2019-04-21T01:37:04.104Z,58.10
2019-04-21T01:39:48.822Z,58.30
2019-04-21T01:42:17.813Z,58.10
2019-04-21T01:44:50.608Z,57.60
2019-04-21T01:47:12.445Z,57.50
2019-04-21T01:49:36.843Z,57.70
2019-04-21T01:52:24.609Z,58.10
2019-04-21T01:55:13.803Z,57.50
2019-04-21T01:58:00.440Z,58.00
2019-04-21T02:01:02.046Z,58.50
2019-04-21T02:06:15.873Z,58.70
2019-04-21T02:08:36.446Z,58.50
2019-04-21T02:11:18.858Z,58.90
2019-04-21T02:13:50.303Z,58.90
2019-04-21T02:16:14.065Z,58.40
2019-04-21T02:18:46.454Z,58.60
2019-04-21T02:21:04.154Z,58.90
2019-04-21T02:23:54.581Z,59.40
2019-04-21T02:26:16.436Z,60.20
2019-04-21T02:28:55.871Z,60.10
2019-04-21T02:31:36.119Z,59.60
2019-04-21T02:34:00.281Z,59.40
2019-04-21T02:36:55.723Z,59.20
2019-04-21T02:49:13.254Z,60.30
2019-04-21T02:59:33.833Z,60.60
2019-04-21T03:02:25.080Z,59.50
2019-04-21T03:05:11.640Z,60.00
2019-04-21T03:07:44.635Z,60.40
2019-04-21T03:10:12.275Z,60.90
2019-04-21T03:12:37.749Z,61.10
2019-04-21T03:15:27.349Z,60.90
2019-04-21T03:17:55.353Z,60.80
2019-04-21T03:20:17.616Z,60.70
2019-04-21T03:25:33.581Z,60.80
2019-04-21T03:27:56.968Z,60.90
2019-04-21T03:30:45.005Z,60.90
2019-04-21T03:35:58.337Z,61.40
2019-04-21T03:37:54.532Z,61.40
2019-04-21T03:40:18.755Z,61.40
2019-04-21T03:42:59.935Z,61.70
2019-04-21T03:45:32.136Z,61.40
2019-04-21T03:50:39.846Z,61.80
2019-04-21T03:53:02.443Z,62.00
2019-04-21T03:58:23.960Z,62.30
2019-04-21T04:09:16.225Z,62.90
2019-04-21T04:11:37.792Z,62.90
2019-04-21T04:14:18.242Z,63.20
2019-04-21T04:16:37.518Z,64.20
2019-04-21T04:19:09.269Z,63.80
2019-04-21T04:24:13.331Z,63.60
2019-04-21T04:26:40.964Z,63.60
2019-04-21T04:29:12.359Z,63.50
2019-04-21T04:32:03.653Z,63.90
2019-04-21T04:34:24.471Z,63.80
2019-04-21T04:36:59.337Z,64.60
2019-04-21T04:42:39.306Z,63.50
2019-04-21T04:55:17.150Z,63.30
2019-04-21T05:00:21.531Z,64.10
2019-04-21T05:07:42.853Z,63.60
2019-04-21T05:10:03.966Z,63.00
2019-04-21T05:12:35.759Z,62.90
2019-04-21T05:17:43.553Z,62.70
2019-04-21T05:22:47.255Z,62.70
2019-04-21T05:25:05.213Z,62.90
2019-04-21T05:27:36.546Z,62.60
2019-04-21T05:30:30.816Z,63.40
2019-04-21T05:33:24.449Z,63.50
2019-04-21T05:35:55.204Z,63.50
2019-04-21T05:38:36.576Z,62.70
2019-04-21T05:40:55.187Z,63.10
2019-04-21T05:43:43.707Z,63.90
2019-04-21T05:46:04.498Z,63.90
2019-04-21T05:48:41.768Z,64.00
2019-04-21T05:51:08.862Z,64.70
2019-04-21T05:53:45.571Z,64.40
2019-04-21T05:56:16.271Z,64.60
2019-04-21T05:58:49.735Z,64.50
2019-04-21T06:01:24.349Z,65.00
2019-04-21T06:03:53.174Z,64.20
2019-04-21T06:06:27.668Z,63.60
2019-04-21T06:08:48.340Z,64.50
2019-04-21T06:11:25.889Z,63.00
2019-04-21T06:14:02.655Z,62.90
2019-04-21T06:16:28.665Z,61.90
2019-04-21T06:18:58.281Z,61.80
2019-04-21T06:21:27.467Z,60.50
2019-04-21T06:23:57.102Z,59.60
2019-04-21T06:28:56.806Z,58.80
2019-04-21T06:32:02.448Z,59.50
2019-04-21T06:34:06.315Z,58.80
2019-04-21T06:36:43.990Z,58.60
2019-04-21T06:41:42.562Z,58.30
2019-04-21T06:46:59.320Z,58.70
2019-04-21T06:49:13.133Z,58.90
2019-04-21T06:51:44.804Z,58.10
2019-04-21T06:54:16.257Z,58.90
2019-04-21T06:57:05.013Z,58.00
2019-04-21T06:59:13.475Z,59.00
2019-04-21T07:02:29.013Z,58.30
2019-04-21T07:04:24.269Z,57.70
2019-04-21T07:06:54.720Z,57.30
2019-04-21T07:09:25.433Z,56.60
2019-04-21T07:11:55.101Z,57.20
2019-04-21T07:17:05.274Z,56.50
2019-04-21T07:19:44.143Z,56.30
2019-04-21T07:22:07.434Z,56.40
2019-04-21T07:24:37.339Z,56.20
2019-04-21T07:27:11.602Z,56.70
2019-04-21T07:29:48.757Z,56.00
2019-04-21T07:32:10.338Z,55.90
2019-04-21T07:34:47.624Z,55.90
2019-04-21T07:37:12.567Z,55.60
2019-04-21T07:39:43.943Z,55.50
2019-04-21T07:42:16.387Z,55.90
2019-04-21T07:44:44.169Z,55.90
2019-04-21T07:47:20.341Z,55.60
2019-04-21T07:50:00.435Z,55.30
2019-04-21T07:52:47.042Z,56.50
2019-04-21T07:55:18.626Z,55.70
2019-04-21T07:57:36.698Z,55.70
2019-04-21T08:02:46.313Z,55.90
2019-04-21T08:10:10.503Z,54.80
2019-04-21T08:12:43.283Z,54.80
2019-04-21T08:15:29.078Z,54.90
2019-04-21T08:18:09.139Z,54.90
2019-04-21T08:20:24.646Z,55.10
2019-04-21T08:23:02.259Z,55.10
2019-04-21T08:25:32.754Z,54.40
2019-04-21T08:28:01.438Z,54.20
2019-04-21T08:33:25.000Z,53.60
2019-04-21T08:38:08.766Z,52.70
2019-04-21T08:43:20.565Z,52.30
2019-04-21T08:45:46.931Z,52.00
2019-04-21T08:48:25.410Z,51.50
2019-04-21T08:51:06.269Z,51.20
2019-04-21T08:53:27.468Z,51.10
2019-04-21T08:56:25.438Z,51.40
2019-04-21T08:59:28.915Z,49.90
2019-04-21T09:02:02.983Z,50.10
2019-04-21T09:04:28.609Z,49.50
2019-04-21T09:09:35.012Z,48.70
2019-04-21T09:12:04.344Z,49.10
2019-04-21T09:14:46.907Z,48.40
2019-04-21T09:17:06.481Z,49.60
2019-04-21T09:19:51.051Z,49.30
2019-04-21T09:22:16.849Z,48.70
2019-04-21T09:24:52.545Z,47.70
2019-04-21T09:27:20.192Z,46.90
2019-04-21T09:29:44.843Z,46.40
2019-04-21T09:32:16.576Z,46.70
2019-04-21T09:34:45.533Z,47.60
2019-04-21T09:37:28.857Z,47.30
2019-04-21T09:39:52.437Z,47.20
2019-04-21T09:42:30.606Z,46.90
2019-04-21T09:44:58.052Z,47.40
2019-04-21T09:47:35.084Z,47.40
2019-04-21T09:49:58.577Z,47.20
2019-04-21T09:52:40.984Z,46.90
2019-04-21T09:55:10.259Z,47.70
2019-04-21T09:57:43.122Z,47.10
2019-04-21T10:00:15.179Z,46.80
2019-04-21T10:02:53.524Z,46.60
2019-04-21T10:05:14.554Z,46.50
2019-04-21T10:07:46.399Z,46.60
2019-04-21T10:10:17.245Z,46.10
2019-04-21T10:12:48.097Z,46.40
2019-04-21T10:15:18.849Z,45.30
2019-04-21T10:17:58.291Z,45.30
2019-04-21T10:20:28.872Z,45.50
2019-04-21T10:22:59.576Z,45.20
2019-04-21T10:25:30.652Z,45.80
2019-04-21T10:28:01.387Z,45.20
2019-04-21T10:30:32.994Z,44.70
2019-04-21T10:33:04.003Z,44.50
2019-04-21T10:35:35.233Z,44.30
2019-04-21T10:38:16.967Z,44.10
2019-04-21T10:40:39.168Z,43.30
2019-04-21T10:43:12.041Z,43.40
2019-04-21T10:45:43.159Z,42.90
2019-04-21T10:48:14.685Z,42.80
2019-04-21T10:50:45.433Z,43.40
2019-04-21T10:53:20.829Z,42.60
2019-04-21T10:56:04.148Z,42.80
2019-04-21T10:58:29.361Z,42.20
2019-04-21T11:01:10.589Z,42.90
2019-04-21T11:03:58.917Z,41.90
2019-04-21T11:06:30.811Z,41.40
2019-04-21T11:09:03.071Z,42.00
2019-04-21T11:11:34.552Z,42.10
2019-04-21T11:14:06.478Z,41.50
2019-04-21T11:16:37.297Z,41.30
2019-04-21T11:19:07.796Z,41.20
2019-04-21T11:21:38.748Z,41.20
2019-04-21T11:24:10.237Z,41.60
2019-04-21T11:26:42.067Z,41.80
2019-04-21T11:29:12.910Z,41.10
2019-04-21T11:31:43.555Z,40.60
2019-04-21T11:34:15.364Z,40.00
2019-04-21T11:36:46.059Z,39.00
2019-04-21T11:39:38.204Z,39.10
2019-04-21T11:42:01.724Z,38.80
2019-04-21T11:44:33.090Z,38.70
2019-04-21T11:47:06.767Z,39.00
2019-04-21T11:49:37.247Z,39.10
2019-04-21T11:52:09.075Z,39.60
2019-04-21T11:54:40.619Z,39.10
2019-04-21T11:57:15.184Z,38.40
2019-04-21T11:59:43.843Z,38.40
2019-04-21T12:02:15.218Z,37.30
2019-04-21T12:04:45.731Z,37.90
2019-04-21T12:07:17.435Z,37.80
2019-04-21T12:09:48.089Z,36.90
2019-04-21T12:12:21.195Z,34.80
2019-04-21T12:14:52.209Z,35.00
2019-04-21T12:17:24.156Z,31.30
2019-04-21T12:19:55.037Z,31.50
2019-04-21T12:22:29.988Z,31.30
2019-04-21T12:24:58.008Z,30.90
2019-04-21T12:27:29.843Z,28.80
2019-04-21T12:30:01.915Z,29.30
2019-04-21T12:32:40.169Z,29.30
2019-04-21T12:35:12.283Z,29.60
2019-04-21T12:37:44.715Z,28.70
2019-04-21T12:40:16.712Z,28.00
2019-04-21T12:42:48.399Z,27.00
2019-04-21T12:45:19.319Z,27.70
2019-04-21T12:47:52.410Z,28.60
2019-04-21T12:50:23.592Z,28.20
2019-04-21T12:52:54.133Z,28.80
2019-04-21T12:55:30.500Z,28.70
2019-04-21T12:57:59.314Z,28.40
2019-04-21T13:00:31.172Z,27.70
2019-04-21T13:03:01.837Z,29.10
2019-04-21T13:05:33.797Z,27.90
2019-04-21T13:08:04.788Z,27.70
2019-04-21T13:10:36.028Z,27.80
2019-04-21T13:13:08.018Z,27.50
2019-04-21T13:15:39.752Z,28.50
2019-04-21T13:18:10.272Z,28.60
2019-04-21T13:20:40.700Z,28.30
2019-04-21T13:23:12.182Z,28.30
2019-04-21T13:25:43.646Z,28.60
2019-04-21T13:28:14.678Z,28.80
2019-04-21T13:30:46.353Z,29.30
2019-04-21T13:33:16.958Z,28.10
2019-04-21T13:35:48.784Z,27.70
2019-04-21T13:38:29.332Z,28.00
2019-04-21T13:41:17.767Z,27.90
2019-04-21T13:43:35.086Z,27.20
2019-04-21T13:48:50.577Z,28.30
2019-04-21T13:51:21.282Z,27.90
2019-04-21T13:53:51.763Z,28.90
2019-04-21T13:56:22.707Z,28.40
2019-04-21T13:58:53.432Z,28.40
2019-04-21T14:01:25.527Z,28.50
2019-04-21T14:03:57.407Z,27.70
2019-04-21T14:06:28.197Z,28.10
2019-04-21T14:08:59.042Z,28.30
2019-04-21T14:11:29.861Z,27.30
2019-04-21T14:14:00.608Z,27.70
2019-04-21T14:16:33.930Z,28.40
2019-04-21T14:19:05.613Z,28.10
2019-04-21T14:21:37.121Z,28.30
2019-04-21T14:24:08.919Z,27.40
2019-04-21T14:26:40.435Z,28.50
2019-04-21T14:29:11.396Z,28.30
2019-04-21T14:31:42.126Z,27.80
2019-04-21T14:34:13.972Z,27.80
2019-04-21T14:36:46.493Z,27.60
2019-04-21T14:39:18.586Z,27.60
2019-04-21T14:41:50.396Z,27.70
2019-04-21T14:44:22.749Z,28.20
2019-04-21T14:46:57.870Z,28.00
2019-04-21T14:49:42.693Z,28.30
2019-04-21T14:52:21.121Z,28.20
2019-04-21T14:54:54.894Z,28.40
2019-04-21T14:57:25.352Z,29.30
2019-04-21T14:59:57.211Z,29.70
2019-04-21T15:02:27.942Z,29.70
2019-04-21T15:04:59.854Z,28.70
2019-04-21T15:07:30.972Z,27.70
2019-04-21T15:10:09.770Z,26.10
2019-04-21T15:12:34.023Z,25.90
2019-04-21T15:15:07.806Z,26.30
2019-04-21T15:17:39.879Z,25.80
2019-04-21T15:20:15.391Z,25.70
2019-04-21T15:22:44.189Z,24.30
2019-04-21T15:25:16.222Z,23.70
2019-04-21T15:27:46.777Z,24.10
2019-04-21T15:30:18.615Z,24.50
2019-04-21T15:32:50.460Z,24.50
2019-04-21T15:35:21.396Z,24.50
2019-04-21T15:37:51.904Z,24.50
2019-04-21T15:40:35.193Z,22.40
2019-04-21T15:42:56.847Z,24.00
2019-04-21T15:45:28.471Z,24.40
2019-04-21T15:48:00.189Z,25.20
2019-04-21T15:50:32.257Z,25.20
2019-04-21T15:53:05.630Z,25.40
2019-04-21T15:55:46.660Z,25.10
2019-04-21T15:58:36.760Z,25.30
2019-04-21T16:01:18.529Z,25.60
2019-04-21T16:03:49.386Z,25.90
2019-04-21T16:06:21.555Z,26.20
2019-04-21T16:08:54.258Z,26.00
2019-04-21T16:11:24.323Z,26.20
2019-04-21T16:13:55.506Z,26.70
2019-04-21T16:16:28.587Z,26.50
2019-04-21T16:18:58.399Z,27.10
2019-04-21T16:21:29.512Z,26.60
2019-04-21T16:24:00.523Z,26.90
2019-04-21T16:26:31.104Z,27.70
2019-04-21T16:29:02.748Z,27.00
2019-04-21T16:31:34.307Z,26.50
2019-04-21T16:34:05.365Z,26.80
2019-04-21T16:36:36.011Z,26.90
2019-04-21T16:39:09.412Z,27.50
2019-04-21T16:41:40.440Z,27.10
2019-04-21T16:44:11.307Z,26.90
2019-04-21T16:46:43.206Z,27.00
2019-04-21T16:49:14.013Z,27.50
2019-04-21T16:51:46.418Z,27.70
2019-04-21T16:54:22.030Z,27.90
2019-04-21T16:57:11.930Z,27.80
2019-04-21T16:59:52.652Z,27.00
2019-04-21T17:02:24.745Z,28.00
2019-04-21T17:04:56.254Z,28.40
2019-04-21T17:07:28.173Z,28.30
2019-04-21T17:09:58.934Z,27.90
2019-04-21T17:12:30.670Z,29.10
2019-04-21T17:15:21.421Z,29.20
2019-04-21T17:17:54.788Z,29.50
2019-04-21T17:20:19.212Z,29.60
2019-04-21T17:22:39.482Z,30.30
2019-04-21T17:25:10.811Z,30.80
2019-04-21T17:27:41.284Z,31.50
2019-04-21T17:30:14.649Z,32.00
2019-04-21T17:32:49.498Z,31.90
2019-04-21T17:35:19.401Z,32.30
2019-04-21T17:37:50.035Z,33.80
2019-04-21T17:40:24.422Z,34.20
2019-04-21T17:43:01.981Z,33.80
2019-04-21T17:45:28.885Z,35.20
2019-04-21T17:48:04.712Z,34.00
2019-04-21T17:50:47.521Z,35.00
2019-04-21T17:53:30.467Z,34.60
2019-04-21T17:56:20.607Z,35.30
2019-04-21T17:58:43.411Z,35.10
2019-04-21T18:01:21.320Z,35.60
2019-04-21T18:03:58.511Z,35.90
2019-04-21T18:06:25.727Z,36.20
2019-04-21T18:09:04.396Z,36.60
2019-04-21T18:11:29.179Z,37.00
2019-04-21T18:13:43.894Z,36.80
2019-04-21T18:16:26.724Z,37.70
2019-04-21T18:18:46.801Z,37.50
2019-04-21T18:21:26.956Z,38.10
2019-04-21T18:24:07.153Z,38.70
2019-04-21T18:26:40.532Z,38.80
2019-04-21T18:29:05.499Z,38.80
2019-04-21T18:31:41.546Z,39.20
2019-04-21T18:34:17.472Z,39.80
2019-04-21T18:36:53.500Z,40.20
2019-04-21T18:39:43.356Z,40.40
2019-04-21T18:42:31.221Z,40.40
2019-04-21T18:48:11.183Z,41.40
2019-04-21T18:50:55.124Z,41.60
2019-04-21T18:54:06.284Z,42.10
2019-04-21T18:56:20.704Z,42.40
2019-04-21T18:58:50.954Z,42.80
2019-04-21T19:01:27.270Z,42.80
2019-04-21T19:03:55.710Z,43.20
2019-04-21T19:06:43.883Z,43.30
2019-04-21T19:09:11.725Z,43.30
2019-04-21T19:11:43.341Z,43.80
2019-04-21T19:14:35.650Z,43.50
2019-04-21T19:20:00.866Z,44.30
2019-04-21T19:22:28.131Z,45.90
2019-04-21T19:24:59.452Z,45.10
2019-04-21T19:27:26.329Z,44.80
2019-04-21T19:30:23.393Z,45.20
2019-04-21T19:32:29.026Z,45.30
2019-04-21T19:34:49.047Z,45.90
2019-04-21T19:37:22.089Z,46.50
2019-04-21T19:40:00.487Z,46.70
2019-04-21T19:42:30.671Z,46.00
2019-04-21T19:45:06.213Z,45.80
2019-04-21T19:47:47.290Z,46.10
2019-04-21T19:50:11.223Z,46.60
2019-04-21T19:52:34.045Z,46.60
2019-04-21T19:54:56.109Z,47.40
2019-04-21T19:57:25.285Z,47.00
2019-04-21T19:59:58.539Z,47.50
2019-04-21T20:02:26.825Z,46.90
2019-04-21T20:05:03.185Z,47.60
2019-04-21T20:07:44.427Z,47.10
2019-04-21T20:10:25.649Z,47.60
2019-04-21T20:12:48.703Z,47.10
2019-04-21T20:15:28.154Z,48.10
2019-04-21T20:17:49.519Z,48.40
2019-04-21T20:20:04.033Z,48.80
2019-04-21T20:22:38.622Z,49.30
2019-04-21T20:25:11.637Z,49.50
2019-04-21T20:27:46.816Z,49.20
2019-04-21T20:30:24.656Z,49.40
2019-04-21T20:33:03.193Z,50.00
2019-04-21T20:35:38.238Z,49.40
2019-04-21T20:37:57.711Z,49.10
2019-04-21T20:40:27.964Z,49.00
2019-04-21T20:43:06.518Z,49.10
2019-04-21T20:45:55.645Z,48.80
2019-04-21T20:47:53.984Z,48.70
2019-04-21T20:50:33.322Z,48.10
2019-04-21T20:53:10.999Z,48.90
2019-04-21T20:55:37.896Z,48.70
2019-04-21T20:58:07.824Z,49.10
2019-04-21T21:00:55.811Z,49.10
2019-04-21T21:03:24.654Z,49.30
2019-04-21T21:05:49.686Z,49.90
2019-04-21T21:08:32.770Z,50.00
2019-04-21T21:10:55.170Z,50.10
2019-04-21T21:13:31.074Z,50.30
2019-04-21T21:16:20.046Z,50.50
2019-04-21T21:21:09.546Z,51.10
2019-04-21T21:23:49.405Z,51.50
2019-04-21T21:26:21.831Z,51.70
2019-04-21T21:28:43.031Z,51.60
2019-04-21T21:31:24.563Z,51.60
2019-04-21T21:36:26.500Z,52.30
2019-04-21T21:39:03.160Z,52.80
2019-04-21T21:41:23.732Z,53.20
2019-04-21T21:43:56.589Z,53.50
2019-04-21T21:46:35.497Z,53.50
2019-04-21T21:49:03.097Z,53.80
2019-04-21T21:51:39.278Z,54.00
2019-04-21T21:53:57.082Z,54.30
2019-04-21T21:56:28.865Z,54.50
2019-04-21T21:59:01.132Z,54.50
2019-04-21T22:01:37.950Z,54.60
2019-04-21T22:04:11.069Z,54.70
2019-04-21T22:06:45.239Z,55.10
2019-04-21T22:09:12.512Z,55.30
2019-04-21T22:11:44.389Z,55.50
2019-04-21T22:14:23.052Z,55.60
2019-04-21T22:17:06.177Z,55.80
2019-04-21T22:19:47.368Z,55.80
2019-04-21T22:22:09.657Z,56.20
2019-04-21T22:24:41.566Z,56.10
2019-04-21T22:26:57.128Z,56.30
2019-04-21T22:29:35.098Z,56.80
2019-04-21T22:32:08.841Z,57.00
2019-04-21T22:34:38.697Z,57.10
2019-04-21T22:37:21.164Z,57.20
2019-04-21T22:39:56.932Z,57.40
2019-04-21T22:42:17.984Z,57.70
2019-04-21T22:44:42.890Z,57.50
2019-04-21T22:47:18.497Z,57.60
2019-04-21T22:49:46.470Z,57.50
2019-04-21T22:52:20.983Z,58.30
2019-04-21T22:54:51.049Z,58.40
2019-04-21T22:57:24.914Z,58.30
2019-04-21T23:00:00.847Z,58.30
2019-04-21T23:02:29.560Z,58.20
2019-04-21T23:05:00.109Z,58.70
2019-04-21T23:07:32.919Z,58.80
2019-04-21T23:10:03.576Z,59.00
2019-04-21T23:12:37.252Z,59.70
2019-04-21T23:15:13.453Z,59.30
2019-04-21T23:18:00.759Z,59.10
2019-04-21T23:20:37.319Z,58.70
2019-04-21T23:23:05.119Z,58.90
2019-04-21T23:25:32.186Z,59.20
2019-04-21T23:28:09.271Z,59.20
2019-04-21T23:30:45.787Z,59.00
2019-04-21T23:33:03.543Z,59.20
2019-04-21T23:35:32.325Z,59.30
2019-04-21T23:38:03.573Z,59.40
2019-04-21T23:40:32.523Z,59.50
2019-04-21T23:43:10.651Z,59.90
2019-04-21T23:45:40.931Z,60.10
2019-04-21T23:48:23.804Z,60.20
2019-04-21T23:50:50.434Z,60.30
2019-04-21T23:53:15.300Z,60.90
2019-04-21T23:55:47.330Z,61.00
2019-04-21T23:58:24.075Z,61.00
